Terminal Aerodrome Forecast
Issued by NWS

Home | Current Version | Previous Version | Text Only | Print | Product List | Glossary On
Versions: 1 2 3 4 5 6 7 8 9 10 11 12 13 14 15 16
199
FTUS46 KSEW 111131
TAFBLI
TAF
KBLI 111131Z 1112/1212 00000KT 3SM BR SCT002 OVC120
      TEMPO 1112/1116 1SM BR BKN002
     FM111700 03006KT P6SM BKN050 OVC090
     FM112300 VRB04KT P6SM -RA OVC040
     FM120600 16008KT 5SM -RA OVC025=

USA.gov is the U.S. government's official web portal to all federal, state and local government web resources and services.